Time;durP1;ratioP1;P1;durP2;ratioP2;P2;SDS_P1;SDS_P2;PMS_P1;PMS_P2;Temp;Humidity;BMP_temperature;BMP_pressure;BME280_temperature;BME280_humidity;BME280_pressure;Samples;Min_cycle;Max_cycle;Signal;HPM_P1;HPM_P2
2022/08/21 00:00:25;;;;;;;;;;;;;;;24.77;55.67;98549.84;4505869;31;34204;-88
2022/08/21 00:02:57;;;;;;;;;;;;;;;24.46;56.54;98551.50;4503374;31;34521;-86
2022/08/21 00:05:26;;;;;;;;;;;;;;;24.38;56.55;98542.22;4502648;31;34308;-85
2022/08/21 00:07:55;;;;;;;;;;;;;;;24.07;57.47;98559.75;4501185;31;33406;-85
2022/08/21 00:10:23;;;;;;;;;;;;;;;24.31;56.87;98546.16;4497432;31;35011;-86
2022/08/21 00:12:50;;;;;;;;;;;;;;;23.66;58.84;98556.53;4498240;31;34308;-86
2022/08/21 00:15:21;;;;;;;;;;;;;;;24.34;56.87;98530.94;4499893;31;34932;-86
2022/08/21 00:17:48;;;;;;;;;;;;;;;24.98;54.84;98540.72;4512492;31;34058;-85
2022/08/21 00:20:16;;;;;;;;;;;;;;;24.48;56.11;98533.75;4512741;31;34947;-87
2022/08/21 00:22:43;;;;;;;;;;;;;;;23.98;57.82;98536.38;4513485;31;34312;-86
2022/08/21 00:25:11;;;;;;;;;;;;;;;24.02;57.70;98535.31;4513643;31;34259;-85
2022/08/21 00:27:39;;;;;;;;;;;;;;;24.43;56.40;98529.63;4513311;31;34449;-86
2022/08/21 00:30:07;;;;;;;;;;;;;;;24.24;57.01;98529.72;4513489;31;35654;-87
2022/08/21 00:32:35;;;;;;;;;;;;;;;23.30;59.97;98533.62;4513911;31;34016;-85
2022/08/21 00:35:04;;;;;;;;;;;;;;;23.20;60.40;98529.72;4515433;31;34008;-85
2022/08/21 00:37:31;;;;;;;;;;;;;;;23.71;58.78;98531.56;4516122;31;34047;-86
2022/08/21 00:40:02;;;;;;;;;;;;;;;24.51;56.34;98532.75;4515868;31;34314;-85
2022/08/21 00:42:30;;;;;;;;;;;;;;;24.14;57.51;98533.81;4514933;31;35307;-85
2022/08/21 00:44:57;;;;;;;;;;;;;;;24.15;57.35;98535.50;4514771;31;35013;-86
2022/08/21 00:47:25;;;;;;;;;;;;;;;24.09;57.65;98536.66;4515504;31;34206;-86
2022/08/21 00:49:52;;;;;;;;;;;;;;;24.45;56.59;98531.25;4515625;31;33641;-86
2022/08/21 00:52:21;;;;;;;;;;;;;;;24.95;55.02;98524.13;4515769;31;34199;-85
2022/08/21 00:54:48;;;;;;;;;;;;;;;24.18;57.14;98519.47;4514876;31;34028;-87
2022/08/21 00:57:17;;;;;;;;;;;;;;;24.11;57.55;98524.22;4501929;31;33856;-86
2022/08/21 00:59:45;;;;;;;;;;;;;;;24.61;55.91;98515.37;4499355;31;34200;-86
2022/08/21 01:02:14;;;;;;;;;;;;;;;24.47;56.46;98523.22;4499106;31;34198;-86
2022/08/21 01:04:41;;;;;;;;;;;;;;;24.65;56.05;98522.22;4512417;31;34474;-86
2022/08/21 01:07:08;;;;;;;;;;;;;;;24.25;56.88;98519.06;4515340;31;34381;-86
2022/08/21 01:09:37;;;;;;;;;;;;;;;24.85;55.37;98520.25;4515236;31;34969;-84
2022/08/21 01:12:04;;;;;;;;;;;;;;;24.10;57.26;98519.88;4510474;31;35270;-86
2022/08/21 01:14:32;;;;;;;;;;;;;;;24.22;57.12;98515.72;4515204;31;35064;-85
2022/08/21 01:16:59;;;;;;;;;;;;;;;24.31;56.87;98522.31;4515589;31;33244;-85
2022/08/21 01:19:27;;;;;;;;;;;;;;;24.61;55.91;98518.03;4512919;31;34669;-86
2022/08/21 01:21:55;;;;;;;;;;;;;;;24.23;56.77;98512.97;4514205;31;35946;-85
2022/08/21 01:24:22;;;;;;;;;;;;;;;23.74;58.48;98512.88;4515768;31;35149;-85
2022/08/21 01:26:49;;;;;;;;;;;;;;;24.57;55.85;98513.84;4515683;31;33142;-85
2022/08/21 01:29:36;;;;;;;;;;;;;;;24.07;57.31;98511.22;4501378;31;34760;-86
2022/08/21 01:32:04;;;;;;;;;;;;;;;24.58;55.86;98510.22;4499810;31;34401;-85
2022/08/21 01:34:32;;;;;;;;;;;;;;;24.67;55.39;98509.75;4499797;31;35211;-86
2022/08/21 01:37:00;;;;;;;;;;;;;;;23.99;57.54;98508.97;4499637;31;33416;-86
2022/08/21 01:39:27;;;;;;;;;;;;;;;24.15;57.13;98493.13;4503888;31;33818;-87
2022/08/21 01:41:55;;;;;;;;;;;;;;;23.87;57.82;98504.34;4515118;31;34030;-88
2022/08/21 01:44:22;;;;;;;;;;;;;;;24.20;56.47;98499.03;4515573;31;34018;-86
2022/08/21 01:46:50;;;;;;;;;;;;;;;23.84;57.93;98502.69;4515381;31;33216;-86
2022/08/21 01:49:18;;;;;;;;;;;;;;;23.93;57.82;98509.28;4515401;31;34348;-87
2022/08/21 01:51:45;;;;;;;;;;;;;;;24.42;56.33;98502.28;4514397;31;34022;-86
2022/08/21 01:54:12;;;;;;;;;;;;;;;24.33;56.74;98505.41;4515450;31;34288;-86
2022/08/21 01:56:40;;;;;;;;;;;;;;;24.51;55.97;98503.59;4499461;31;34141;-87
2022/08/21 01:59:08;;;;;;;;;;;;;;;24.90;54.76;98500.50;4498008;31;34141;-85
2022/08/21 02:01:35;;;;;;;;;;;;;;;24.39;56.00;98501.56;4510426;31;33825;-86
2022/08/21 02:04:03;;;;;;;;;;;;;;;24.20;56.69;98499.87;4514872;31;34242;-87
2022/08/21 02:06:30;;;;;;;;;;;;;;;24.82;54.76;98500.09;4515348;31;33592;-85
2022/08/21 02:08:57;;;;;;;;;;;;;;;24.37;56.25;98498.16;4515603;31;34926;-84
2022/08/21 02:11:25;;;;;;;;;;;;;;;23.53;58.74;98493.66;4514953;31;34143;-87
2022/08/21 02:13:52;;;;;;;;;;;;;;;24.03;57.45;98497.28;4502147;31;34877;-86
2022/08/21 02:16:19;;;;;;;;;;;;;;;24.04;57.60;98491.06;4499527;31;33943;-86
2022/08/21 02:18:47;;;;;;;;;;;;;;;24.03;57.50;98494.66;4507096;31;33695;-85
2022/08/21 02:21:14;;;;;;;;;;;;;;;24.27;56.62;98490.66;4515492;31;34475;-87
2022/08/21 02:23:42;;;;;;;;;;;;;;;24.03;57.31;98492.84;4515459;31;34276;-87
2022/08/21 02:26:09;;;;;;;;;;;;;;;24.43;56.08;98497.81;4514847;31;33965;-85
2022/08/21 02:28:36;;;;;;;;;;;;;;;25.14;53.93;98487.69;4512827;31;33770;-87
2022/08/21 02:31:04;;;;;;;;;;;;;;;25.35;53.29;98498.00;4515032;31;34876;-84
2022/08/21 02:33:31;;;;;;;;;;;;;;;25.44;52.94;98502.75;4514754;31;34314;-85
2022/08/21 02:35:58;;;;;;;;;;;;;;;25.69;52.22;98502.19;4515324;31;34160;-88
2022/08/21 02:38:27;;;;;;;;;;;;;;;25.00;54.31;98506.13;4514075;31;34848;-86
2022/08/21 02:40:55;;;;;;;;;;;;;;;24.86;54.55;98495.47;4500993;31;35308;-85
2022/08/21 02:43:23;;;;;;;;;;;;;;;23.87;57.71;98496.41;4499189;31;34218;-86
2022/08/21 02:45:50;;;;;;;;;;;;;;;24.83;55.20;98487.69;4499381;31;33248;-86
2022/08/21 02:48:19;;;;;;;;;;;;;;;24.28;56.64;98486.22;4498861;31;35029;-86
2022/08/21 02:50:48;;;;;;;;;;;;;;;23.86;58.08;98484.06;4499285;31;33807;-84
2022/08/21 02:53:16;;;;;;;;;;;;;;;23.40;59.18;98494.34;4500464;31;34154;-86
2022/08/21 02:55:44;;;;;;;;;;;;;;;24.63;55.81;98489.66;4515094;31;33010;-86
2022/08/21 02:58:12;;;;;;;;;;;;;;;24.39;56.21;98490.97;4514230;31;35014;-86
2022/08/21 03:00:40;;;;;;;;;;;;;;;24.09;57.22;98489.00;4514962;31;34527;-86
2022/08/21 03:03:08;;;;;;;;;;;;;;;24.50;56.32;98499.19;4514524;31;33771;-86
2022/08/21 03:05:37;;;;;;;;;;;;;;;24.44;56.30;98491.59;4515045;31;33789;-86
2022/08/21 03:08:06;;;;;;;;;;;;;;;24.81;55.13;98489.56;4514602;31;34279;-87
2022/08/21 03:10:34;;;;;;;;;;;;;;;24.19;56.61;98495.53;4513668;31;35287;-86
2022/08/21 03:13:02;;;;;;;;;;;;;;;24.43;56.26;98487.22;4515024;31;34783;-86
2022/08/21 03:15:30;;;;;;;;;;;;;;;23.83;58.17;98492.16;4514726;31;33944;-86
2022/08/21 03:17:58;;;;;;;;;;;;;;;24.04;57.47;98491.91;4514520;31;34552;-86
2022/08/21 03:20:26;;;;;;;;;;;;;;;24.30;57.03;98487.00;4513491;31;34181;-87
2022/08/21 03:22:54;;;;;;;;;;;;;;;24.27;56.65;98490.66;4499644;31;33813;-87
2022/08/21 03:25:22;;;;;;;;;;;;;;;23.70;58.48;98489.31;4500472;31;32385;-85
2022/08/21 03:28:09;;;;;;;;;;;;;;;22.87;61.08;98497.78;4513536;31;35597;-85
2022/08/21 03:30:40;;;;;;;;;;;;;;;24.32;56.92;98497.50;4513466;31;34438;-88
2022/08/21 03:33:07;;;;;;;;;;;;;;;24.17;56.73;98497.41;4514158;31;35054;-87
2022/08/21 03:35:38;;;;;;;;;;;;;;;24.69;55.56;98493.75;4513479;31;32495;-86
2022/08/21 03:38:06;;;;;;;;;;;;;;;24.34;56.34;98498.31;4514410;31;35057;-86
2022/08/21 03:40:33;;;;;;;;;;;;;;;23.49;59.30;98504.47;4514658;31;33793;-87
2022/08/21 03:43:00;;;;;;;;;;;;;;;23.79;58.47;98510.03;4514501;31;34985;-87
2022/08/21 03:45:28;;;;;;;;;;;;;;;24.11;57.46;98499.53;4514641;31;34243;-86
2022/08/21 03:47:57;;;;;;;;;;;;;;;23.85;58.35;98511.47;4514154;31;34058;-84
2022/08/21 03:50:25;;;;;;;;;;;;;;;23.09;60.49;98517.00;4513345;31;34382;-86
2022/08/21 03:52:53;;;;;;;;;;;;;;;23.37;59.91;98511.19;4513864;31;35093;-86
2022/08/21 03:55:20;;;;;;;;;;;;;;;23.94;57.99;98505.69;4514301;31;33943;-87
2022/08/21 03:57:47;;;;;;;;;;;;;;;23.53;59.29;98517.47;4512912;31;33077;-87
2022/08/21 04:00:15;;;;;;;;;;;;;;;24.16;57.41;98502.78;4513858;31;34410;-86
2022/08/21 04:02:43;;;;;;;;;;;;;;;23.40;59.61;98520.78;4512909;31;34208;-87
2022/08/21 04:05:12;;;;;;;;;;;;;;;23.22;60.34;98519.91;4512842;31;33601;-85
2022/08/21 04:07:39;;;;;;;;;;;;;;;24.15;57.41;98522.28;4500342;31;34756;-86
2022/08/21 04:10:06;;;;;;;;;;;;;;;23.30;59.92;98520.41;4499779;31;34474;-85
2022/08/21 04:12:34;;;;;;;;;;;;;;;23.41;59.71;98522.50;4498823;31;34468;-87
2022/08/21 04:15:01;;;;;;;;;;;;;;;24.24;57.07;98509.41;4511435;31;34363;-87
2022/08/21 04:17:29;;;;;;;;;;;;;;;22.71;61.97;98522.28;4516262;31;34902;-86
2022/08/21 04:19:56;;;;;;;;;;;;;;;23.08;61.07;98520.59;4516315;31;34239;-86
2022/08/21 04:22:23;;;;;;;;;;;;;;;22.94;61.43;98523.03;4516055;31;34310;-86
2022/08/21 04:24:51;;;;;;;;;;;;;;;23.70;58.92;98523.72;4516085;31;34252;-84
2022/08/21 04:27:18;;;;;;;;;;;;;;;24.33;56.82;98520.44;4516010;31;35157;-87
2022/08/21 04:29:45;;;;;;;;;;;;;;;23.74;58.58;98519.97;4515010;31;35263;-85
2022/08/21 04:32:13;;;;;;;;;;;;;;;24.28;56.92;98521.53;4516221;31;34039;-86
2022/08/21 04:34:40;;;;;;;;;;;;;;;23.14;60.31;98533.50;4515943;31;34056;-88
2022/08/21 04:37:07;;;;;;;;;;;;;;;23.98;57.80;98539.91;4516114;31;35119;-86
2022/08/21 04:39:35;;;;;;;;;;;;;;;24.13;57.08;98532.06;4515974;31;34296;-85
2022/08/21 04:42:02;;;;;;;;;;;;;;;23.30;59.90;98542.41;4515978;31;34522;-85
2022/08/21 04:44:29;;;;;;;;;;;;;;;23.42;59.56;98535.66;4515855;31;34013;-86
2022/08/21 04:46:57;;;;;;;;;;;;;;;23.66;58.42;98541.53;4515602;31;34488;-85
2022/08/21 04:49:24;;;;;;;;;;;;;;;23.34;59.58;98542.28;4515866;31;34267;-83
2022/08/21 04:51:51;;;;;;;;;;;;;;;24.10;57.54;98538.41;4515729;31;34892;-86
2022/08/21 04:54:19;;;;;;;;;;;;;;;24.54;56.06;98532.53;4515909;31;33477;-86
2022/08/21 04:56:48;;;;;;;;;;;;;;;24.26;56.74;98541.09;4514706;31;34138;-86
2022/08/21 04:59:16;;;;;;;;;;;;;;;25.08;54.11;98535.75;4515510;31;34502;-86
2022/08/21 05:01:44;;;;;;;;;;;;;;;24.48;56.04;98539.06;4515033;31;33835;-87
2022/08/21 05:04:14;;;;;;;;;;;;;;;24.65;55.48;98543.41;4513297;31;33346;-86
2022/08/21 05:06:41;;;;;;;;;;;;;;;24.64;55.56;98532.91;4514472;31;33978;-86
2022/08/21 05:09:09;;;;;;;;;;;;;;;25.02;54.08;98544.03;4514398;31;34151;-86
2022/08/21 05:11:55;;;;;;;;;;;;;;;24.33;55.77;98539.84;4514859;31;34593;-86
2022/08/21 05:14:22;;;;;;;;;;;;;;;24.79;55.04;98545.31;4515781;31;33510;-86
2022/08/21 05:16:49;;;;;;;;;;;;;;;24.65;55.52;98545.22;4516100;31;34134;-86
2022/08/21 05:19:17;;;;;;;;;;;;;;;25.22;53.48;98545.59;4515597;31;34557;-86
2022/08/21 05:21:45;;;;;;;;;;;;;;;24.50;55.65;98547.75;4515595;31;34139;-86
2022/08/21 05:24:12;;;;;;;;;;;;;;;24.87;54.25;98551.06;4515814;31;33159;-86
2022/08/21 05:26:40;;;;;;;;;;;;;;;24.20;55.93;98546.69;4515927;31;34281;-86
2022/08/21 05:29:13;;;;;;;;;;;;;;;23.94;57.14;98553.34;4515064;31;36645;-86
2022/08/21 05:31:40;;;;;;;;;;;;;;;24.03;56.63;98558.19;4514463;31;34021;-87
2022/08/21 05:34:08;;;;;;;;;;;;;;;24.52;55.25;98558.28;4515493;31;33048;-85
2022/08/21 05:36:36;;;;;;;;;;;;;;;24.46;54.81;98550.66;4515337;31;35161;-86
2022/08/21 05:39:04;;;;;;;;;;;;;;;24.18;56.24;98551.25;4515492;31;35283;-87
2022/08/21 05:41:31;;;;;;;;;;;;;;;24.43;55.72;98550.81;4515604;31;34217;-85
2022/08/21 05:44:00;;;;;;;;;;;;;;;24.49;55.11;98546.06;4515179;31;34143;-86
2022/08/21 05:46:28;;;;;;;;;;;;;;;24.81;53.94;98556.69;4515596;31;34249;-86
2022/08/21 05:48:55;;;;;;;;;;;;;;;24.70;54.72;98552.00;4515335;31;34161;-86
2022/08/21 05:51:23;;;;;;;;;;;;;;;24.27;55.74;98550.75;4515089;31;34358;-86
2022/08/21 05:53:50;;;;;;;;;;;;;;;24.87;54.06;98545.75;4515629;31;33645;-87
2022/08/21 05:56:17;;;;;;;;;;;;;;;24.42;55.29;98542.00;4515324;31;34217;-86
2022/08/21 05:58:45;;;;;;;;;;;;;;;24.38;55.19;98537.78;4514413;31;34347;-86
2022/08/21 06:01:12;;;;;;;;;;;;;;;25.21;53.01;98543.91;4515216;31;34986;-86
2022/08/21 06:03:40;;;;;;;;;;;;;;;24.26;55.33;98543.75;4503082;31;33908;-87
2022/08/21 06:06:07;;;;;;;;;;;;;;;24.25;55.35;98545.53;4499414;31;34081;-85
2022/08/21 06:08:34;;;;;;;;;;;;;;;24.41;55.14;98547.41;4499797;31;34078;-85
2022/08/21 06:11:03;;;;;;;;;;;;;;;24.62;54.17;98546.22;4499691;31;34262;-85
2022/08/21 06:13:31;;;;;;;;;;;;;;;24.72;53.90;98547.44;4499518;31;33299;-84
2022/08/21 06:16:06;;;;;;;;;;;;;;;24.38;54.94;98544.87;4498941;31;35024;-86
2022/08/21 06:18:34;;;;;;;;;;;;;;;24.23;55.18;98544.75;4511096;31;34525;-86
2022/08/21 06:21:01;;;;;;;;;;;;;;;23.82;56.58;98554.84;4515254;31;34995;-86
2022/08/21 06:23:28;;;;;;;;;;;;;;;23.89;56.53;98547.44;4514914;31;33197;-86
2022/08/21 06:26:00;;;;;;;;;;;;;;;24.75;53.93;98547.28;4514918;31;34267;-86
2022/08/21 06:28:27;;;;;;;;;;;;;;;24.80;53.89;98554.97;4515152;31;35209;-84
2022/08/21 06:30:54;;;;;;;;;;;;;;;24.88;53.79;98546.59;4514686;31;33999;-87
2022/08/21 06:33:23;;;;;;;;;;;;;;;23.42;56.84;98558.63;4514544;31;33445;-87
2022/08/21 06:35:55;;;;;;;;;;;;;;;24.41;54.80;98553.56;4515088;31;34224;-85
2022/08/21 06:38:22;;;;;;;;;;;;;;;23.60;57.01;98556.81;4515233;31;34564;-86
2022/08/21 06:40:49;;;;;;;;;;;;;;;23.37;57.96;98564.09;4514528;31;34347;-85
2022/08/21 06:43:18;;;;;;;;;;;;;;;23.78;56.91;98563.88;4514965;31;33616;-85
2022/08/21 06:45:46;;;;;;;;;;;;;;;24.31;55.25;98562.03;4514895;31;34289;-84
2022/08/21 06:48:13;;;;;;;;;;;;;;;24.22;55.68;98561.59;4515121;31;34466;-86
2022/08/21 06:50:46;;;;;;;;;;;;;;;23.57;57.58;98571.09;4515021;31;34286;-85
2022/08/21 06:53:14;;;;;;;;;;;;;;;23.83;57.07;98559.22;4515167;31;34182;-85
2022/08/21 06:55:42;;;;;;;;;;;;;;;25.22;53.03;98557.06;4514558;31;34998;-87
2022/08/21 06:58:09;;;;;;;;;;;;;;;23.71;57.14;98568.63;4498974;31;35134;-84
2022/08/21 07:00:41;;;;;;;;;;;;;;;24.46;55.44;98555.97;4499862;31;33941;-86
2022/08/21 07:03:15;;;;;;;;;;;;;;;25.15;53.44;98554.84;4500124;31;34068;-86
2022/08/21 07:05:43;;;;;;;;;;;;;;;25.00;53.89;98557.41;4514975;31;34964;-84
2022/08/21 07:08:10;;;;;;;;;;;;;;;24.82;54.27;98558.41;4514951;31;34259;-86
2022/08/21 07:10:37;;;;;;;;;;;;;;;24.98;54.00;98566.38;4514632;31;33975;-85
2022/08/21 07:13:05;;;;;;;;;;;;;;;25.30;52.77;98559.28;4514627;31;34469;-86
2022/08/21 07:15:32;;;;;;;;;;;;;;;25.21;52.51;98559.81;4514962;31;33812;-85
2022/08/21 07:18:00;;;;;;;;;;;;;;;24.95;53.91;98559.44;4514456;31;34498;-86
2022/08/21 07:20:28;;;;;;;;;;;;;;;24.68;54.88;98561.81;4514967;31;33964;-89
2022/08/21 07:22:55;;;;;;;;;;;;;;;25.19;53.12;98559.91;4514771;31;34094;-87
2022/08/21 07:25:23;;;;;;;;;;;;;;;26.19;50.81;98560.25;4514780;31;33837;-86
2022/08/21 07:27:50;;;;;;;;;;;;;;;24.70;54.40;98562.59;4514442;31;34508;-88
2022/08/21 07:30:17;;;;;;;;;;;;;;;24.80;54.08;98560.28;4500411;31;34526;-87
2022/08/21 07:32:45;;;;;;;;;;;;;;;24.87;54.01;98563.47;4514146;31;34055;-88
2022/08/21 07:35:12;;;;;;;;;;;;;;;24.53;54.93;98560.00;4514329;31;34169;-88
2022/08/21 07:37:39;;;;;;;;;;;;;;;24.58;54.63;98557.94;4499824;31;34445;-87
2022/08/21 07:40:07;;;;;;;;;;;;;;;25.11;53.65;98561.25;4514332;31;34207;-86
2022/08/21 07:42:35;;;;;;;;;;;;;;;24.76;53.95;98554.28;4514493;31;34161;-87
2022/08/21 07:45:03;;;;;;;;;;;;;;;24.81;54.62;98555.84;4499555;31;34958;-86
2022/08/21 07:47:30;;;;;;;;;;;;;;;25.07;53.55;98552.59;4514343;31;35315;-84
2022/08/21 07:50:11;;;;;;;;;;;;;;;25.86;51.42;98554.31;4514509;31;34856;-87
2022/08/21 07:52:39;;;;;;;;;;;;;;;25.47;52.74;98555.66;4500056;31;33185;-85
2022/08/21 07:55:07;;;;;;;;;;;;;;;25.91;52.11;98549.56;4499728;31;34527;-88
2022/08/21 07:57:35;;;;;;;;;;;;;;;25.96;51.72;98551.00;4514326;31;34904;-87
2022/08/21 08:00:03;;;;;;;;;;;;;;;26.21;50.99;98544.19;4499461;31;34159;-86
2022/08/21 08:02:38;;;;;;;;;;;;;;;25.98;51.25;98540.28;4513378;31;34239;-85
2022/08/21 08:05:06;;;;;;;;;;;;;;;26.08;51.56;98536.13;4499557;31;34236;-86
2022/08/21 08:07:34;;;;;;;;;;;;;;;26.26;51.06;98539.47;4499971;31;34000;-85
2022/08/21 08:10:02;;;;;;;;;;;;;;;26.04;51.49;98541.72;4512869;31;33830;-87
2022/08/21 08:12:29;;;;;;;;;;;;;;;25.15;54.31;98542.44;4504596;31;32853;-85
2022/08/21 08:14:57;;;;;;;;;;;;;;;25.82;52.95;98542.16;4513678;31;34977;-85
2022/08/21 08:17:25;;;;;;;;;;;;;;;25.52;53.47;98542.97;4513212;31;33656;-85
2022/08/21 08:19:52;;;;;;;;;;;;;;;26.32;51.78;98532.91;4499079;31;35204;-84
2022/08/21 08:22:20;;;;;;;;;;;;;;;26.93;49.13;98534.41;4499100;31;33614;-84
2022/08/21 08:24:48;;;;;;;;;;;;;;;25.75;52.02;98530.16;4513915;31;34091;-86
2022/08/21 08:27:16;;;;;;;;;;;;;;;26.55;50.71;98528.88;4511922;31;34441;-85
2022/08/21 08:29:44;;;;;;;;;;;;;;;26.52;51.27;98529.94;4513878;31;32658;-87
2022/08/21 08:32:11;;;;;;;;;;;;;;;26.24;51.31;98525.41;4498164;31;33339;-86
2022/08/21 08:34:39;;;;;;;;;;;;;;;26.36;51.28;98529.97;4499220;31;34086;-87
2022/08/21 08:37:07;;;;;;;;;;;;;;;26.06;51.94;98535.34;4513344;31;34069;-85
2022/08/21 08:39:34;;;;;;;;;;;;;;;26.72;50.24;98536.66;4513745;31;34774;-85
2022/08/21 08:42:05;;;;;;;;;;;;;;;27.21;48.86;98533.53;4513213;31;33022;-84
2022/08/21 08:44:55;;;;;;;;;;;;;;;26.79;49.88;98531.81;4513565;31;34923;-84
2022/08/21 08:47:22;;;;;;;;;;;;;;;27.32;48.87;98535.50;4513611;31;35422;-87
2022/08/21 08:49:54;;;;;;;;;;;;;;;27.27;48.90;98532.25;4489623;31;34231;-85
2022/08/21 08:52:22;;;;;;;;;;;;;;;26.46;50.46;98525.00;4497397;31;33177;-82
2022/08/21 08:54:52;;;;;;;;;;;;;;;26.96;49.62;98523.56;4512024;31;33774;-84
2022/08/21 08:57:20;;;;;;;;;;;;;;;26.07;51.48;98531.78;4501466;31;34371;-83
2022/08/21 08:59:49;;;;;;;;;;;;;;;26.91;49.78;98531.84;4500966;31;33971;-84
2022/08/21 09:02:17;;;;;;;;;;;;;;;26.61;51.73;98534.66;4501571;31;33394;-85
2022/08/21 09:04:45;;;;;;;;;;;;;;;26.48;51.21;98523.09;4501077;31;34939;-82
2022/08/21 09:07:15;;;;;;;;;;;;;;;26.60;51.25;98535.63;4514327;31;34382;-87
2022/08/21 09:10:04;;;;;;;;;;;;;;;26.02;52.04;98546.28;4505670;31;33676;-85
2022/08/21 09:12:46;;;;;;;;;;;;;;;26.42;51.11;98534.06;4499930;31;34129;-86
2022/08/21 09:15:13;;;;;;;;;;;;;;;26.38;51.42;98543.19;4503932;31;34343;-85
2022/08/21 09:17:56;;;;;;;;;;;;;;;26.03;52.30;98532.91;4515484;31;35453;-86
2022/08/21 09:20:43;;;;;;;;;;;;;;;26.85;50.77;98534.06;4501744;31;34931;-86
2022/08/21 09:23:13;;;;;;;;;;;;;;;26.79;51.03;98542.44;4515670;31;32861;-88
2022/08/21 09:25:42;;;;;;;;;;;;;;;27.09;50.82;98540.47;4515622;31;34349;-88
2022/08/21 09:28:11;;;;;;;;;;;;;;;28.07;46.72;98525.97;4515255;31;34260;-87
2022/08/21 09:30:38;;;;;;;;;;;;;;;26.81;50.19;98535.19;4515131;31;33947;-84
2022/08/21 09:33:06;;;;;;;;;;;;;;;27.71;47.83;98528.44;4501442;31;33160;-86
2022/08/21 09:35:35;;;;;;;;;;;;;;;27.35;49.08;98529.94;4515118;31;34108;-86
2022/08/21 09:38:05;;;;;;;;;;;;;;;26.51;51.61;98525.53;4489522;31;34155;-86
2022/08/21 09:40:38;;;;;;;;;;;;;;;26.24;52.01;98519.25;4514786;31;34552;-87
2022/08/21 09:43:07;;;;;;;;;;;;;;;26.53;50.95;98517.50;4500203;31;32920;-87
2022/08/21 09:45:34;;;;;;;;;;;;;;;26.90;50.56;98530.16;4500276;31;35295;-85
2022/08/21 09:48:12;;;;;;;;;;;;;;;26.88;50.21;98526.72;4515261;31;33845;-86
2022/08/21 09:50:40;;;;;;;;;;;;;;;27.46;49.21;98524.75;4500456;31;34301;-82
2022/08/21 09:53:15;;;;;;;;;;;;;;;27.42;48.60;98517.94;4514703;31;33353;-83
2022/08/21 09:58:44;;;;;;;;;;;;;;;28.02;48.05;98514.75;4502158;31;34363;-85
2022/08/21 10:01:17;;;;;;;;;;;;;;;27.89;48.21;98516.59;4485619;31;34600;-84
2022/08/21 10:03:44;;;;;;;;;;;;;;;27.40;48.77;98522.53;4511633;31;33394;-84
2022/08/21 10:06:21;;;;;;;;;;;;;;;27.00;50.03;98529.56;4513052;31;33907;-84
2022/08/21 10:08:48;;;;;;;;;;;;;;;27.61;49.08;98531.72;4514356;31;34287;-84
2022/08/21 10:11:16;;;;;;;;;;;;;;;26.78;50.73;98535.38;4514916;31;34260;-86
2022/08/21 10:13:53;;;;;;;;;;;;;;;27.34;50.01;98534.41;4500717;31;33522;-83
2022/08/21 10:16:39;;;;;;;;;;;;;;;27.16;50.63;98520.53;4490265;31;35030;-83
2022/08/21 10:19:06;;;;;;;;;;;;;;;27.83;48.44;98522.31;4514721;31;34399;-84
2022/08/21 10:21:36;;;;;;;;;;;;;;;28.36;46.26;98521.25;4509025;31;35139;-87
2022/08/21 10:24:03;;;;;;;;;;;;;;;27.80;48.22;98515.37;4496756;31;32661;-82
2022/08/21 10:26:35;;;;;;;;;;;;;;;27.96;48.33;98520.53;4513576;31;33646;-84
2022/08/21 10:29:06;;;;;;;;;;;;;;;28.15;47.20;98520.13;4514151;31;35163;-84
2022/08/21 10:31:46;;;;;;;;;;;;;;;28.23;46.95;98524.91;4514266;31;35037;-84
2022/08/21 10:34:24;;;;;;;;;;;;;;;27.83;48.58;98517.84;4500475;31;33686;-83
2022/08/21 10:36:57;;;;;;;;;;;;;;;28.94;45.45;98524.25;4499984;31;33783;-83
2022/08/21 10:39:31;;;;;;;;;;;;;;;29.03;45.54;98510.31;4514782;31;34944;-83
2022/08/21 10:42:06;;;;;;;;;;;;;;;28.28;46.45;98520.09;4500183;31;33849;-84
2022/08/21 10:44:43;;;;;;;;;;;;;;;28.26;47.90;98524.66;4499798;31;33543;-83
2022/08/21 10:47:48;;;;;;;;;;;;;;;29.00;45.94;98523.88;4511617;31;33744;-85
2022/08/21 10:50:16;;;;;;;;;;;;;;;28.60;46.57;98516.06;4442363;32;35043;-83
2022/08/21 10:52:43;;;;;;;;;;;;;;;29.15;45.98;98505.88;4448816;32;35019;-83
2022/08/21 10:55:17;;;;;;;;;;;;;;;29.23;44.83;98513.31;4465727;31;34172;-84
2022/08/21 10:57:51;;;;;;;;;;;;;;;29.03;45.41;98514.78;4487172;31;34110;-85
2022/08/21 11:00:20;;;;;;;;;;;;;;;28.52;47.02;98513.06;4514679;31;34339;-84
2022/08/21 11:02:53;;;;;;;;;;;;;;;28.77;46.51;98501.50;4512095;31;34980;-84
2022/08/21 11:05:23;;;;;;;;;;;;;;;28.79;45.82;98510.25;4515101;31;34217;-85
2022/08/21 11:07:55;;;;;;;;;;;;;;;28.93;45.44;98511.88;4513524;31;34374;-84
2022/08/21 11:10:32;;;;;;;;;;;;;;;29.05;45.31;98504.84;4501103;31;34067;-83
2022/08/21 11:13:03;;;;;;;;;;;;;;;28.26;46.92;98508.69;4504222;31;33854;-83
2022/08/21 11:15:36;;;;;;;;;;;;;;;28.95;45.52;98509.97;4499700;31;34180;-83
2022/08/21 11:18:23;;;;;;;;;;;;;;;28.56;46.32;98498.56;4496262;31;34282;-82
2022/08/21 11:21:15;;;;;;;;;;;;;;;28.35;46.83;98502.72;4498459;31;35254;-82
2022/08/21 11:23:44;;;;;;;;;;;;;;;29.17;44.83;98503.94;4497719;31;35006;-83
2022/08/21 11:26:15;;;;;;;;;;;;;;;28.19;47.61;98504.78;4498309;31;32999;-84
2022/08/21 11:28:48;;;;;;;;;;;;;;;27.60;48.30;98507.87;4497602;31;34292;-83
2022/08/21 11:31:28;;;;;;;;;;;;;;;28.60;45.75;98507.19;4499482;31;34162;-83
2022/08/21 11:34:04;;;;;;;;;;;;;;;28.11;47.43;98506.16;4513889;31;34072;-83
2022/08/21 11:36:31;;;;;;;;;;;;;;;28.13;46.92;98512.22;4513821;31;33254;-80
2022/08/21 11:39:18;;;;;;;;;;;;;;;28.92;45.10;98498.69;4514327;31;33661;-82
2022/08/21 11:42:12;;;;;;;;;;;;;;;28.36;47.13;98501.75;4509334;31;34939;-82
2022/08/21 11:44:50;;;;;;;;;;;;;;;27.81;47.80;98505.59;4501371;31;34893;-83
2022/08/21 11:47:22;;;;;;;;;;;;;;;28.46;46.31;98497.50;4510864;31;33311;-81
2022/08/21 11:49:49;;;;;;;;;;;;;;;28.66;45.66;98496.06;4514497;31;33837;-81
2022/08/21 11:52:19;;;;;;;;;;;;;;;28.56;47.24;98498.56;4513580;31;33899;-84
2022/08/21 11:54:49;;;;;;;;;;;;;;;28.79;45.75;98485.34;4512907;31;35071;-81
2022/08/21 11:57:20;;;;;;;;;;;;;;;29.08;44.94;98481.44;4502281;31;33149;-82
2022/08/21 12:00:08;;;;;;;;;;;;;;;29.05;44.58;98484.34;4499297;31;34991;-84
2022/08/21 12:02:39;;;;;;;;;;;;;;;28.59;45.77;98493.00;4497343;31;33745;-80
2022/08/21 12:05:08;;;;;;;;;;;;;;;28.63;45.97;98490.97;4497075;31;35403;-81
2022/08/21 12:07:37;;;;;;;;;;;;;;;28.62;46.45;98482.09;4500107;31;33005;-82
2022/08/21 12:10:06;;;;;;;;;;;;;;;28.93;45.40;98489.69;4503278;31;33717;-83
2022/08/21 12:12:34;;;;;;;;;;;;;;;27.93;47.68;98483.44;4498953;31;35370;-82
2022/08/21 12:15:11;;;;;;;;;;;;;;;28.86;45.20;98494.63;4504718;31;34271;-82
2022/08/21 12:17:39;;;;;;;;;;;;;;;27.80;48.09;98487.91;4513252;31;33887;-83
2022/08/21 12:20:33;;;;;;;;;;;;;;;27.96;47.64;98488.56;4513807;31;34207;-84
2022/08/21 12:23:09;;;;;;;;;;;;;;;28.54;46.54;98497.81;4509520;31;34547;-82
2022/08/21 12:25:41;;;;;;;;;;;;;;;28.41;46.29;98486.31;4511643;31;33696;-84
2022/08/21 12:28:13;;;;;;;;;;;;;;;28.46;46.42;98489.50;4512349;31;33346;-84
2022/08/21 12:30:43;;;;;;;;;;;;;;;28.63;46.86;98485.63;4514986;31;34258;-85
2022/08/21 12:33:27;;;;;;;;;;;;;;;27.29;49.24;98482.44;4513913;31;34204;-85
2022/08/21 12:36:11;;;;;;;;;;;;;;;28.02;48.66;98485.47;4513018;31;34843;-83
2022/08/21 12:38:48;;;;;;;;;;;;;;;27.16;49.37;98488.59;4502788;31;33711;-83
2022/08/21 12:41:18;;;;;;;;;;;;;;;28.24;46.96;98475.97;4509539;31;32493;-85
2022/08/21 12:44:11;;;;;;;;;;;;;;;28.17;47.09;98477.34;4513117;31;34520;-83
2022/08/21 12:46:42;;;;;;;;;;;;;;;27.84;48.17;98481.41;4491388;31;34276;-83
2022/08/21 12:49:13;;;;;;;;;;;;;;;27.93;47.60;98485.25;4505231;31;34196;-83
2022/08/21 12:51:52;;;;;;;;;;;;;;;27.30;49.06;98485.00;4500317;31;34294;-86
2022/08/21 12:54:23;;;;;;;;;;;;;;;28.31;46.75;98477.25;4483221;31;873321;-86
2022/08/21 12:56:57;;;;;;;;;;;;;;;26.75;50.48;98474.44;4514931;31;34804;-85
2022/08/21 12:59:25;;;;;;;;;;;;;;;27.36;49.07;98484.59;4515836;31;33498;-85
2022/08/21 13:01:54;;;;;;;;;;;;;;;27.38;49.24;98471.19;4506391;31;34918;-85
2022/08/21 13:04:45;;;;;;;;;;;;;;;27.41;49.00;98463.00;4507808;31;34048;-82